This is the latest recevied weather packets stored in our database for station/object N7TUG-8. If no packets are shown the sender has not sent any weather packets the latest 10 day(s).
| Time | Temp. | Humidity | Pressure | Rain* | Wind** | Luminosity | Snow |
|---|---|---|---|---|---|---|---|
| 1777400061 | 11.67° C | 81% | 1022.3 hPa | 0 mm | 2.68 m/s, 126° | - | - |
| 1777399246 | 11.67° C | 82% | 1022.2 hPa | 0 mm | 3.58 m/s, 132° | - | - |
| 1777398567 | 11.67° C | 82% | 1022.2 hPa | 0 mm | 4.02 m/s, 126° | - | - |
| 1777398299 | 11.67° C | 82% | 1022.1 hPa | 0 mm | 3.58 m/s, 130° | - | - |
| 1777397351 | 11.67° C | 83% | 1022.1 hPa | 0 mm | 3.13 m/s, 130° | - | - |
| 1777396917 | 11.11° C | 83% | 1022.1 hPa | 0 mm | 4.02 m/s, 128° | - | - |
| 1777396496 | 11.67° C | 83% | 1022 hPa | 0 mm | 2.68 m/s, 140° | - | - |
| 1777395576 | 11.11° C | 84% | 1022 hPa | 0 mm | 2.68 m/s, 132° | - | - |
| 1777394686 | 11.11° C | 86% | 1021.9 hPa | 0 mm | 3.13 m/s, 126° | - | - |
| 1777394559 | 11.11° C | 86% | 1021.9 hPa | 0 mm | 3.13 m/s, 126° | - | - |
| 1777393846 | 10.56° C | 87% | 1021.8 hPa | 0 mm | 3.58 m/s, 130° | - | - |
| 1777393771 | 10.56° C | 87% | 1021.9 hPa | 0 mm | 4.02 m/s, 122° | - | - |
| 1777392956 | 10.56° C | 89% | 1021.9 hPa | 0 mm | 2.68 m/s, 131° | - | - |
| 1777392071 | 10° C | 91% | 1021.7 hPa | 0 mm | 3.58 m/s, 125° | - | - |
| 1777391297 | 10.56° C | 90% | 1021.7 hPa | 0 mm | 3.13 m/s, 126° | - | - |
| 1777391141 | 10.56° C | 90% | 1021.7 hPa | 0 mm | 3.13 m/s, 126° | - | - |
| 1777390552 | 10.56° C | 90% | 1021.6 hPa | 0 mm | 2.68 m/s, 135° | - | - |
| 1777390276 | 10.56° C | 90% | 1021.6 hPa | 0 mm | 3.13 m/s, 127° | - | - |
| 1777389717 | 10.56° C | 89% | 1021.5 hPa | 0 mm | 3.58 m/s, 125° | - | - |
| 1777389371 | 10.56° C | 89% | 1021.6 hPa | 0 mm | 3.13 m/s, 129° | - | - |
| 1777388536 | 10.56° C | 89% | 1021.5 hPa | 0 mm | 2.68 m/s, 142° | - | - |
| 1777388099 | 10.56° C | 89% | 1021.2 hPa | 0 mm | 3.13 m/s, 123° | - | - |
| 1777387676 | 10.56° C | 90% | 1021.2 hPa | 0 mm | 2.68 m/s, 131° | - | - |
| 1777387257 | 10° C | 90% | 1021.1 hPa | 0 mm | 3.13 m/s, 122° | - | - |
| 1777386781 | 10° C | 91% | 1021 hPa | 0 mm | 3.58 m/s, 121° | - | - |
* Rain latest hour (hover to see other rain measurements)
** Current wind speed in m/s (hover to see current wind gust speed)